Time;durP1;ratioP1;P1;durP2;ratioP2;P2;SDS_P1;SDS_P2;PMS_P1;PMS_P2;Temp;Humidity;BMP_temperature;BMP_pressure;BME280_temperature;BME280_humidity;BME280_pressure;Samples;Min_cycle;Max_cycle;Signal;HPM_P1;HPM_P2
2023/03/14 00:02:08;0.00;0.00;0.62;0.00;0.00;0.62;1.20;0.70;;;23.20;24.00;;;;;;2263978;61;20407;-50
2023/03/14 00:04:55;0.00;0.00;0.62;0.00;0.00;0.62;1.43;0.70;;;23.20;24.00;;;;;;2263336;61;20978;-53
2023/03/14 00:07:40;0.00;0.00;0.62;0.00;0.00;0.62;1.57;0.80;;;23.20;24.00;;;;;;2264306;61;20359;-53
2023/03/14 00:10:24;0.00;0.00;0.62;0.00;0.00;0.62;1.60;0.90;;;23.20;24.10;;;;;;2263810;61;20419;-50
2023/03/14 00:13:09;0.00;0.00;0.62;0.00;0.00;0.62;1.70;0.93;;;23.20;24.10;;;;;;2263121;61;20896;-52
2023/03/14 00:15:54;0.00;0.00;0.62;0.00;0.00;0.62;1.73;1.13;;;23.20;24.60;;;;;;2264152;61;20419;-56
2023/03/14 00:18:40;0.00;0.00;0.62;0.00;0.00;0.62;1.50;0.90;;;23.20;24.00;;;;;;2264734;61;20536;-55
2023/03/14 00:21:26;0.00;0.00;0.62;0.00;0.00;0.62;1.37;0.80;;;23.20;24.10;;;;;;2264173;61;20429;-50
2023/03/14 00:24:10;0.00;0.00;0.62;0.00;0.00;0.62;1.60;0.90;;;23.20;24.00;;;;;;2264633;61;20399;-52
2023/03/14 00:26:55;0.00;0.00;0.62;0.00;0.00;0.62;1.67;0.77;;;23.20;24.00;;;;;;2264028;61;20666;-52
2023/03/14 00:29:43;0.00;0.00;0.62;0.00;0.00;0.62;1.80;0.90;;;23.20;24.00;;;;;;2264295;61;20955;-53
2023/03/14 00:32:28;0.00;0.00;0.62;0.00;0.00;0.62;1.60;0.80;;;23.20;24.00;;;;;;2261292;61;20873;-55
2023/03/14 00:35:15;0.00;0.00;0.62;0.00;0.00;0.62;2.07;0.80;;;23.20;24.00;;;;;;2263753;61;20388;-56
2023/03/14 00:38:00;0.00;0.00;0.62;0.00;0.00;0.62;1.40;0.87;;;23.20;24.10;;;;;;2264986;61;20405;-52
2023/03/14 00:40:44;0.00;0.00;0.62;0.00;0.00;0.62;1.33;0.70;;;23.20;24.10;;;;;;2264420;61;20480;-53
2023/03/14 00:43:29;0.00;0.00;0.62;0.00;0.00;0.62;1.53;0.90;;;23.20;24.00;;;;;;2263737;61;20364;-52
2023/03/14 00:46:13;0.00;0.00;0.62;0.00;0.00;0.62;1.50;0.80;;;23.20;24.10;;;;;;2264533;61;20367;-58
2023/03/14 00:48:58;0.00;0.00;0.62;0.00;0.00;0.62;2.10;1.00;;;23.20;24.00;;;;;;2263753;61;20363;-52
2023/03/14 00:51:44;0.00;0.00;0.62;0.00;0.00;0.62;1.60;0.70;;;23.20;24.60;;;;;;2264572;61;20524;-55
2023/03/14 00:54:30;0.00;0.00;0.62;0.00;0.00;0.62;1.63;1.00;;;23.20;24.00;;;;;;2264444;61;20971;-51
2023/03/14 00:57:15;0.00;0.00;0.62;0.00;0.00;0.62;1.40;0.73;;;23.20;24.00;;;;;;2263444;61;20769;-52
2023/03/14 01:00:00;0.00;0.00;0.62;0.00;0.00;0.62;1.30;0.70;;;23.20;24.10;;;;;;2264212;61;20877;-53
2023/03/14 01:02:45;0.00;0.00;0.62;0.00;0.00;0.62;1.50;0.70;;;23.20;24.00;;;;;;2264081;61;20411;-53
2023/03/14 01:05:29;0.00;0.00;0.62;0.00;0.00;0.62;1.60;0.80;;;23.20;24.10;;;;;;2263774;61;20383;-51
2023/03/14 01:08:15;0.00;0.00;0.62;0.00;0.00;0.62;1.30;0.70;;;23.10;24.00;;;;;;2264832;61;20411;-52
2023/03/14 01:11:05;0.00;0.00;0.62;0.00;0.00;0.62;1.40;0.70;;;23.20;24.00;;;;;;2263749;61;20360;-54
2023/03/14 01:13:50;0.00;0.00;0.62;0.00;0.00;0.62;1.53;0.73;;;23.20;24.10;;;;;;2261526;61;20400;-55
2023/03/14 01:16:35;0.00;0.00;0.62;0.00;0.00;0.62;1.60;0.80;;;23.20;24.00;;;;;;2264749;61;20375;-52
2023/03/14 01:19:20;0.00;0.00;0.62;0.00;0.00;0.62;1.70;0.90;;;23.10;24.00;;;;;;2263410;61;20401;-51
2023/03/14 01:22:04;0.00;0.00;0.62;0.00;0.00;0.62;1.50;0.80;;;23.10;24.00;;;;;;2264111;61;20984;-52
2023/03/14 01:24:50;0.00;0.00;0.62;0.00;0.00;0.62;1.50;0.80;;;23.10;24.00;;;;;;2264350;61;20380;-51
2023/03/14 01:27:35;0.00;0.00;0.62;0.00;0.00;0.62;1.30;0.80;;;23.10;24.00;;;;;;2263698;61;20441;-53
2023/03/14 01:30:20;0.00;0.00;0.62;0.00;0.00;0.62;1.60;0.93;;;23.10;24.00;;;;;;2264112;61;20976;-55
2023/03/14 01:33:05;0.00;0.00;0.62;0.00;0.00;0.62;1.53;0.80;;;23.10;24.00;;;;;;2260778;61;20451;-52
2023/03/14 01:35:50;0.00;0.00;0.62;0.00;0.00;0.62;1.50;0.77;;;23.10;24.00;;;;;;2264617;61;20384;-54
2023/03/14 01:38:37;0.00;0.00;0.62;0.00;0.00;0.62;1.77;0.80;;;23.10;24.00;;;;;;2264320;61;20425;-53
2023/03/14 01:41:25;0.00;0.00;0.62;0.00;0.00;0.62;1.40;0.90;;;23.10;24.00;;;;;;2260421;61;20427;-51
2023/03/14 01:44:13;0.00;0.00;0.62;0.00;0.00;0.62;1.50;0.90;;;23.10;24.00;;;;;;2261340;61;20659;-54
2023/03/14 01:46:57;0.00;0.00;0.62;0.00;0.00;0.62;1.40;0.90;;;23.10;24.00;;;;;;2261118;61;20771;-56
2023/03/14 01:49:43;0.00;0.00;0.62;0.00;0.00;0.62;1.40;0.80;;;23.10;24.00;;;;;;2263649;61;20360;-52
2023/03/14 01:52:35;0.00;0.00;0.62;0.00;0.00;0.62;1.37;0.73;;;23.10;24.00;;;;;;2264357;61;20372;-53
2023/03/14 01:55:24;0.00;0.00;0.62;0.00;0.00;0.62;1.30;0.70;;;23.10;24.00;;;;;;2263285;61;20952;-54
2023/03/14 01:58:10;0.00;0.00;0.62;0.00;0.00;0.62;1.63;0.80;;;23.10;24.00;;;;;;2263826;61;20495;-50
2023/03/14 02:00:58;0.00;0.00;0.62;0.00;0.00;0.62;1.33;0.80;;;23.10;24.00;;;;;;2263597;61;20441;-55
2023/03/14 02:03:50;0.00;0.00;0.62;0.00;0.00;0.62;1.70;0.90;;;23.10;24.00;;;;;;2263216;61;20367;-54
2023/03/14 02:06:44;0.00;0.00;0.62;0.00;0.00;0.62;1.30;0.80;;;23.10;24.00;;;;;;2263925;61;20869;-52
2023/03/14 02:09:30;0.00;0.00;0.62;0.00;0.00;0.62;1.30;0.80;;;23.10;24.00;;;;;;2263650;61;21007;-53
2023/03/14 02:12:17;0.00;0.00;0.62;0.00;0.00;0.62;1.60;0.90;;;23.10;24.00;;;;;;2263763;61;20363;-54
2023/03/14 02:15:09;0.00;0.00;0.62;0.00;0.00;0.62;1.57;0.97;;;23.10;24.00;;;;;;2263703;61;20911;-49
2023/03/14 02:18:27;0.00;0.00;0.62;0.00;0.00;0.62;1.40;0.70;;;23.10;24.00;;;;;;2260568;61;20375;-55
2023/03/14 02:21:45;0.00;0.00;0.62;0.00;0.00;0.62;1.60;1.00;;;23.10;24.00;;;;;;2264215;61;20526;-50
2023/03/14 02:24:40;0.00;0.00;0.62;0.00;0.00;0.62;1.50;0.80;;;23.10;24.00;;;;;;2263868;61;20936;-53
2023/03/14 02:27:31;0.00;0.00;0.62;0.00;0.00;0.62;1.30;0.70;;;23.10;24.00;;;;;;2261257;61;20364;-51
2023/03/14 02:30:19;0.00;0.00;0.62;0.00;0.00;0.62;1.20;0.60;;;23.10;24.00;;;;;;2263471;61;20368;-52
2023/03/14 02:33:07;0.00;0.00;0.62;0.00;0.00;0.62;1.50;0.77;;;23.10;24.00;;;;;;2263130;61;20403;-53
2023/03/14 02:36:16;0.00;0.00;0.62;0.00;0.00;0.62;1.33;0.80;;;23.10;24.00;;;;;;2263916;61;20490;-52
2023/03/14 02:39:08;0.00;0.00;0.62;0.00;0.00;0.62;1.67;0.80;;;23.10;24.10;;;;;;2263429;61;20359;-55
2023/03/14 02:41:54;0.00;0.00;0.62;0.00;0.00;0.62;1.50;0.80;;;23.10;24.00;;;;;;2263528;61;20377;-53
2023/03/14 02:44:51;0.00;0.00;0.62;0.00;0.00;0.62;1.40;0.80;;;23.10;24.00;;;;;;2263775;61;20427;-55
2023/03/14 02:47:42;0.00;0.00;0.62;0.00;0.00;0.62;1.33;0.80;;;23.10;24.00;;;;;;2263213;61;20390;-54
2023/03/14 02:50:30;0.00;0.00;0.62;0.00;0.00;0.62;1.30;0.70;;;23.00;24.00;;;;;;2263339;61;20847;-52
2023/03/14 02:53:20;0.00;0.00;0.62;0.00;0.00;0.62;1.40;0.90;;;23.00;24.00;;;;;;2264151;61;20368;-54
2023/03/14 02:56:07;0.00;0.00;0.62;0.00;0.00;0.62;1.80;0.77;;;23.00;24.00;;;;;;2260216;61;20766;-57
2023/03/14 02:58:53;0.00;0.00;0.62;0.00;0.00;0.62;1.40;0.80;;;23.00;24.00;;;;;;2260687;61;20407;-51
2023/03/14 03:01:53;0.00;0.00;0.62;0.00;0.00;0.62;1.50;0.80;;;23.00;24.00;;;;;;2263576;61;20392;-52
2023/03/14 03:04:37;0.00;0.00;0.62;0.00;0.00;0.62;2.00;0.80;;;23.00;24.00;;;;;;2264177;61;20420;-52
2023/03/14 03:07:22;0.00;0.00;0.62;0.00;0.00;0.62;1.70;0.80;;;23.00;24.00;;;;;;2264079;61;20383;-53
2023/03/14 03:10:09;0.00;0.00;0.62;0.00;0.00;0.62;1.70;1.00;;;23.00;24.00;;;;;;2262765;61;20364;-53
2023/03/14 03:12:54;0.00;0.00;0.62;0.00;0.00;0.62;1.30;0.70;;;23.00;24.00;;;;;;2260838;61;20360;-52
2023/03/14 03:15:42;0.00;0.00;0.62;0.00;0.00;0.62;1.80;0.70;;;23.00;24.00;;;;;;2263888;61;20481;-52
2023/03/14 03:18:29;0.00;0.00;0.62;0.00;0.00;0.62;2.23;0.80;;;23.00;24.00;;;;;;2263427;61;20456;-53
2023/03/14 03:21:13;0.00;0.00;0.62;0.00;0.00;0.62;1.60;0.90;;;23.00;24.00;;;;;;2263897;61;20414;-55
2023/03/14 03:24:01;0.00;0.00;0.62;0.00;0.00;0.62;1.67;0.80;;;23.00;24.00;;;;;;2263513;61;20384;-56
2023/03/14 03:26:46;0.00;0.00;0.62;0.00;0.00;0.62;1.50;0.80;;;23.00;24.00;;;;;;2264326;61;20422;-53
2023/03/14 03:29:31;0.00;0.00;0.62;0.00;0.00;0.62;1.20;0.70;;;23.00;24.00;;;;;;2263740;61;20383;-54
2023/03/14 03:32:16;0.00;0.00;0.62;0.00;0.00;0.62;1.43;0.87;;;23.00;24.00;;;;;;2259899;61;20360;-55
2023/03/14 03:35:04;0.00;0.00;0.62;0.00;0.00;0.62;1.40;0.70;;;23.00;24.00;;;;;;2263668;61;20936;-50
2023/03/14 03:37:50;0.00;0.00;0.62;0.00;0.00;0.62;1.30;0.70;;;23.00;24.00;;;;;;2261019;61;20372;-53
2023/03/14 03:40:34;0.00;0.00;0.62;0.00;0.00;0.62;1.60;1.00;;;23.00;24.00;;;;;;2262898;61;20359;-52
2023/03/14 03:43:19;0.00;0.00;0.62;0.00;0.00;0.62;1.50;0.70;;;23.00;24.00;;;;;;2264165;61;20429;-53
2023/03/14 03:46:07;0.00;0.00;0.62;0.00;0.00;0.62;1.40;0.70;;;23.00;24.00;;;;;;2257734;61;20380;-55
2023/03/14 03:48:55;0.00;0.00;0.62;0.00;0.00;0.62;1.47;0.70;;;23.00;24.00;;;;;;2263470;61;20364;-53
2023/03/14 03:51:41;0.00;0.00;0.62;0.00;0.00;0.62;1.30;0.80;;;23.00;24.00;;;;;;2264460;61;20392;-55
2023/03/14 03:54:26;0.00;0.00;0.62;0.00;0.00;0.62;1.27;0.60;;;23.00;24.00;;;;;;2263466;61;20387;-53
2023/03/14 03:57:11;0.00;0.00;0.62;0.00;0.00;0.62;1.40;0.60;;;23.00;24.00;;;;;;2264885;61;20448;-50
2023/03/14 03:59:56;0.00;0.00;0.62;0.00;0.00;0.62;1.60;0.67;;;23.00;24.00;;;;;;2264479;61;20941;-52
2023/03/14 04:02:40;0.00;0.00;0.62;0.00;0.00;0.62;1.30;0.70;;;23.00;24.00;;;;;;2263568;61;20450;-52
2023/03/14 04:05:27;0.00;0.00;0.62;0.00;0.00;0.62;1.20;0.70;;;23.00;24.00;;;;;;2264345;61;20442;-55
2023/03/14 04:08:19;0.00;0.00;0.62;0.00;0.00;0.62;1.40;0.60;;;23.00;24.00;;;;;;2261320;61;20364;-51
2023/03/14 04:11:05;0.00;0.00;0.62;0.00;0.00;0.62;1.40;0.70;;;23.00;24.00;;;;;;2264148;61;20414;-53
2023/03/14 04:14:23;0.00;0.00;0.62;0.00;0.00;0.62;1.30;0.70;;;23.00;24.00;;;;;;2263190;61;20851;-61
2023/03/14 04:17:17;0.00;0.00;0.62;0.00;0.00;0.62;1.50;0.80;;;23.00;24.00;;;;;;2258528;61;20409;-53
2023/03/14 04:20:04;0.00;0.00;0.62;0.00;0.00;0.62;1.50;0.80;;;23.00;24.00;;;;;;2264340;61;20775;-55
2023/03/14 04:22:53;0.00;0.00;0.62;0.00;0.00;0.62;1.50;0.67;;;23.00;24.00;;;;;;2261202;61;20391;-53
2023/03/14 04:25:39;0.00;0.00;0.62;0.00;0.00;0.62;1.60;0.70;;;23.00;24.00;;;;;;2263877;61;20437;-55
2023/03/14 04:28:24;0.00;0.00;0.62;0.00;0.00;0.62;1.80;0.97;;;23.00;24.00;;;;;;2264232;61;20371;-60
2023/03/14 04:31:12;0.00;0.00;0.62;0.00;0.00;0.62;1.40;0.70;;;23.00;24.00;;;;;;2263106;61;20448;-54
2023/03/14 04:33:57;0.00;0.00;0.62;0.00;0.00;0.62;1.37;0.80;;;22.90;23.90;;;;;;2261312;61;20392;-54
2023/03/14 04:36:52;0.00;0.00;0.62;0.00;0.00;0.62;1.53;0.90;;;23.00;24.00;;;;;;2264151;61;20395;-52
2023/03/14 04:39:43;0.00;0.00;0.62;0.00;0.00;0.62;1.60;0.90;;;22.90;24.00;;;;;;2263380;61;20364;-50
2023/03/14 04:42:42;0.00;0.00;0.62;0.00;0.00;0.62;1.40;0.70;;;22.90;24.00;;;;;;2264181;61;20400;-54
2023/03/14 04:45:28;0.00;0.00;0.62;0.00;0.00;0.62;2.00;1.10;;;22.90;23.90;;;;;;2263679;61;20409;-54
2023/03/14 04:48:16;0.00;0.00;0.62;0.00;0.00;0.62;1.37;0.70;;;22.90;23.90;;;;;;2264325;61;20766;-52
2023/03/14 04:51:01;0.00;0.00;0.62;0.00;0.00;0.62;1.50;0.80;;;22.90;23.90;;;;;;2261157;61;21011;-53
2023/03/14 04:53:50;0.00;0.00;0.62;0.00;0.00;0.62;1.77;0.97;;;22.90;24.00;;;;;;2263345;61;20426;-51
2023/03/14 04:56:36;0.00;0.00;0.62;0.00;0.00;0.62;1.90;1.23;;;22.90;24.00;;;;;;2264167;61;20447;-50
2023/03/14 04:59:22;0.00;0.00;0.62;0.00;0.00;0.62;1.50;0.90;;;22.90;23.90;;;;;;2263644;61;20414;-50
2023/03/14 05:02:09;0.00;0.00;0.62;0.00;0.00;0.62;1.70;0.80;;;22.90;24.00;;;;;;2263530;61;20388;-55
2023/03/14 05:05:05;0.00;0.00;0.62;0.00;0.00;0.62;1.70;1.03;;;22.90;23.90;;;;;;2263876;61;20635;-56
2023/03/14 05:08:00;0.00;0.00;0.62;0.00;0.00;0.62;1.60;0.90;;;22.90;23.90;;;;;;2264063;61;20407;-53
2023/03/14 05:11:11;0.00;0.00;0.62;0.00;0.00;0.62;1.73;0.90;;;22.90;24.00;;;;;;2264105;61;20452;-51
2023/03/14 05:14:15;0.00;0.00;0.62;0.00;0.00;0.62;1.90;0.90;;;22.90;23.90;;;;;;2264520;61;20935;-51
2023/03/14 05:17:04;0.00;0.00;0.62;0.00;0.00;0.62;1.60;0.80;;;22.90;23.90;;;;;;2264067;61;20415;-55
2023/03/14 05:20:23;0.00;0.00;0.62;0.00;0.00;0.62;1.70;0.97;;;22.90;24.00;;;;;;2260922;61;20369;-60
2023/03/14 05:23:31;0.00;0.00;0.62;0.00;0.00;0.62;2.17;1.10;;;22.90;24.00;;;;;;2258764;61;20472;-55
2023/03/14 05:26:16;0.00;0.00;0.62;0.00;0.00;0.62;1.63;1.00;;;22.90;23.90;;;;;;2264338;61;20363;-53
2023/03/14 05:29:17;0.00;0.00;0.62;0.00;0.00;0.62;2.83;1.30;;;22.90;24.00;;;;;;2261099;61;20379;-52
2023/03/14 05:32:13;0.00;0.00;0.62;0.00;0.00;0.62;1.70;0.90;;;22.90;24.00;;;;;;2264286;61;20364;-51
2023/03/14 05:35:16;0.00;0.00;0.62;0.00;0.00;0.62;2.93;1.93;;;22.90;24.00;;;;;;2263931;61;20434;-54
2023/03/14 05:38:07;0.00;0.00;0.62;0.00;0.00;0.62;2.03;1.27;;;22.90;24.00;;;;;;2263959;61;20407;-56
2023/03/14 05:41:01;0.00;0.00;0.62;0.00;0.00;0.62;2.50;1.10;;;22.90;24.00;;;;;;2263631;61;20936;-52
2023/03/14 05:44:06;0.00;0.00;0.62;0.00;0.00;0.62;2.20;1.00;;;22.90;24.00;;;;;;2251136;61;20429;-54
2023/03/14 05:46:59;0.00;0.00;0.62;0.00;0.00;0.62;1.93;1.23;;;22.90;24.00;;;;;;2260615;61;20376;-55
2023/03/14 05:50:12;0.00;0.00;0.62;0.00;0.00;0.62;2.23;1.30;;;22.90;23.90;;;;;;2261080;61;20829;-56
2023/03/14 05:53:10;0.00;0.00;0.62;0.00;0.00;0.62;2.03;1.23;;;22.90;24.00;;;;;;2263782;61;20499;-52
2023/03/14 05:56:15;0.00;0.00;0.62;0.00;0.00;0.62;2.80;1.30;;;22.90;23.90;;;;;;2251087;61;20366;-56
2023/03/14 05:59:18;0.00;0.00;0.62;0.00;0.00;0.62;1.90;1.10;;;22.90;23.90;;;;;;2263763;61;20382;-52
2023/03/14 06:02:16;0.00;0.00;0.62;0.00;0.00;0.62;2.03;1.30;;;22.90;23.90;;;;;;2261072;61;20415;-53
2023/03/14 06:05:15;0.00;0.00;0.62;0.00;0.00;0.62;1.77;1.03;;;22.90;24.00;;;;;;2263909;61;20384;-53
2023/03/14 06:08:00;0.00;0.00;0.62;0.00;0.00;0.62;1.87;1.20;;;22.80;23.90;;;;;;2260445;61;20613;-54
2023/03/14 06:10:46;0.00;0.00;0.62;0.00;0.00;0.62;1.60;1.00;;;22.80;23.90;;;;;;2263612;61;20368;-57
2023/03/14 06:13:31;0.00;0.00;0.62;0.00;0.00;0.62;1.80;1.20;;;22.80;23.90;;;;;;2258493;61;20364;-56
2023/03/14 06:16:17;0.00;0.00;0.62;0.00;0.00;0.62;2.10;1.40;;;22.90;24.00;;;;;;2263184;61;20364;-53
2023/03/14 06:19:02;0.00;0.00;0.62;0.00;0.00;0.62;2.03;1.37;;;22.90;24.00;;;;;;2264128;61;20426;-52
2023/03/14 06:21:49;0.00;0.00;0.62;0.00;0.00;0.62;1.73;1.20;;;22.80;23.90;;;;;;2263172;61;20388;-56
2023/03/14 06:24:34;0.00;0.00;0.62;0.00;0.00;0.62;1.70;0.90;;;22.80;23.90;;;;;;2263821;61;20403;-52
2023/03/14 06:27:19;0.00;0.00;0.62;0.00;0.00;0.62;1.83;1.00;;;22.80;23.90;;;;;;2261388;61;20403;-54
2023/03/14 06:30:06;0.00;0.00;0.62;0.00;0.00;0.62;2.07;1.13;;;22.80;23.90;;;;;;2263023;61;20442;-54
2023/03/14 06:32:51;0.00;0.00;0.62;0.00;0.00;0.62;1.97;1.20;;;22.80;23.90;;;;;;2261169;61;20363;-54
2023/03/14 06:35:39;0.00;0.00;0.62;0.00;0.00;0.62;1.53;1.00;;;22.80;23.90;;;;;;2263893;61;20438;-60
2023/03/14 06:38:26;0.00;0.00;0.62;0.00;0.00;0.62;1.60;1.10;;;22.80;23.90;;;;;;2263116;61;20403;-56
2023/03/14 06:41:13;0.00;0.00;0.62;0.00;0.00;0.62;1.80;1.00;;;22.80;23.90;;;;;;2263806;61;20380;-54
2023/03/14 06:44:01;0.00;0.00;0.62;0.00;0.00;0.62;1.63;1.00;;;22.80;23.90;;;;;;2262931;61;20434;-53
2023/03/14 06:46:45;0.00;0.00;0.62;0.00;0.00;0.62;2.63;1.10;;;22.80;23.90;;;;;;2264270;61;20364;-53
2023/03/14 06:49:30;0.00;0.00;0.62;0.00;0.00;0.62;1.90;1.10;;;22.80;23.90;;;;;;2258000;61;20802;-56
2023/03/14 06:52:17;0.00;0.00;0.62;0.00;0.00;0.62;1.60;0.90;;;22.80;23.90;;;;;;2263094;61;20520;-52
2023/03/14 06:55:05;0.00;0.00;0.62;0.00;0.00;0.62;2.43;1.30;;;22.80;23.90;;;;;;2263707;61;20392;-52
2023/03/14 06:57:49;0.00;0.00;0.62;0.00;0.00;0.62;1.50;1.10;;;22.80;23.90;;;;;;2261281;61;20413;-55
2023/03/14 07:00:36;0.00;0.00;0.62;0.00;0.00;0.62;1.63;0.90;;;22.80;23.90;;;;;;2260252;61;20402;-54
2023/03/14 07:03:21;0.00;0.00;0.62;0.00;0.00;0.62;3.87;1.50;;;22.80;23.90;;;;;;2264337;61;20409;-53
2023/03/14 07:06:08;0.00;0.00;0.62;0.00;0.00;0.62;1.80;1.00;;;22.80;23.90;;;;;;2263231;61;20382;-57
2023/03/14 07:08:53;0.00;0.00;0.62;0.00;0.00;0.62;2.20;1.10;;;22.80;23.90;;;;;;2263528;61;20764;-54
2023/03/14 07:11:39;0.00;0.00;0.62;0.00;0.00;0.62;1.93;1.07;;;22.80;23.90;;;;;;2263990;61;20561;-53
2023/03/14 07:14:24;0.00;0.00;0.62;0.00;0.00;0.62;1.87;1.00;;;22.80;23.90;;;;;;2263470;61;20414;-54
2023/03/14 07:17:09;0.00;0.00;0.62;0.00;0.00;0.62;1.70;0.90;;;22.80;23.90;;;;;;2263891;61;20367;-57
2023/03/14 07:19:54;0.00;0.00;0.62;0.00;0.00;0.62;2.30;1.20;;;22.80;23.90;;;;;;2263431;61;20364;-51
2023/03/14 07:22:39;0.00;0.00;0.62;0.00;0.00;0.62;2.50;1.07;;;22.80;23.90;;;;;;2263008;61;20447;-53
2023/03/14 07:25:24;0.00;0.00;0.62;0.00;0.00;0.62;1.50;0.90;;;22.80;23.90;;;;;;2263544;61;20387;-53
2023/03/14 07:28:10;0.00;0.00;0.62;0.00;0.00;0.62;1.83;1.00;;;22.80;23.90;;;;;;2263050;61;20359;-54
2023/03/14 07:30:58;0.00;0.00;0.62;0.00;0.00;0.62;2.00;1.00;;;22.80;23.90;;;;;;2263359;61;20901;-55
2023/03/14 07:33:48;0.00;0.00;0.62;0.00;0.00;0.62;2.03;1.20;;;22.80;23.90;;;;;;2263511;61;20414;-53
2023/03/14 07:36:33;0.00;0.00;0.62;0.00;0.00;0.62;2.10;0.93;;;22.80;23.90;;;;;;2263084;61;20363;-54
2023/03/14 07:39:18;0.00;0.00;0.62;0.00;0.00;0.62;1.90;1.00;;;22.80;23.90;;;;;;2260631;61;20364;-50
2023/03/14 07:42:16;0.00;0.00;0.62;0.00;0.00;0.62;1.53;0.83;;;22.80;23.90;;;;;;2260875;61;20796;-52
2023/03/14 07:45:09;0.00;0.00;0.62;0.00;0.00;0.62;1.60;0.93;;;22.80;23.90;;;;;;2263655;61;20445;-57
2023/03/14 07:47:57;0.00;0.00;0.62;0.00;0.00;0.62;1.93;1.03;;;22.80;23.90;;;;;;2264172;61;20368;-50
2023/03/14 07:50:42;0.00;0.00;0.62;0.00;0.00;0.62;1.87;0.90;;;22.80;23.90;;;;;;2263005;61;20760;-58
2023/03/14 07:53:27;0.00;0.00;0.62;0.00;0.00;0.62;1.50;0.73;;;22.80;23.90;;;;;;2264030;61;20876;-54
2023/03/14 07:56:12;0.00;0.00;0.62;0.00;0.00;0.62;2.27;1.17;;;22.80;23.90;;;;;;2263863;61;20928;-56
2023/03/14 07:58:57;0.00;0.00;0.62;0.00;0.00;0.62;2.10;1.03;;;22.80;23.90;;;;;;2263184;61;20380;-53
2023/03/14 08:01:43;0.00;0.00;0.62;0.00;0.00;0.62;1.60;1.00;;;22.80;24.10;;;;;;2263905;61;20997;-56
2023/03/14 08:04:28;0.00;0.00;0.62;0.00;0.00;0.62;1.50;0.90;;;22.80;23.90;;;;;;2263701;61;20445;-53
2023/03/14 08:07:13;0.00;0.00;0.62;0.00;0.00;0.62;1.60;0.93;;;22.80;23.90;;;;;;2262876;61;20395;-57
2023/03/14 08:09:57;0.00;0.00;0.62;0.00;0.00;0.62;1.77;1.10;;;22.80;23.90;;;;;;2263509;61;20375;-57
2023/03/14 08:12:42;0.00;0.00;0.62;0.00;0.00;0.62;1.80;1.07;;;22.80;23.90;;;;;;2263490;61;20499;-55
2023/03/14 08:15:29;0.00;0.00;0.62;0.00;0.00;0.62;1.83;1.00;;;22.80;23.90;;;;;;2264207;61;20952;-54
2023/03/14 08:18:15;0.00;0.00;0.62;0.00;0.00;0.62;1.97;1.20;;;22.80;23.90;;;;;;2263970;61;20367;-53
2023/03/14 08:21:00;0.00;0.00;0.62;0.00;0.00;0.62;1.83;1.20;;;22.80;23.90;;;;;;2263047;61;20380;-53
2023/03/14 08:23:45;0.00;0.00;0.62;0.00;0.00;0.62;2.00;1.20;;;22.80;23.90;;;;;;2263290;61;20414;-59
2023/03/14 08:26:29;0.00;0.00;0.62;0.00;0.00;0.62;1.80;1.30;;;22.80;23.90;;;;;;2263974;61;20356;-51
2023/03/14 08:29:14;0.00;0.00;0.62;0.00;0.00;0.62;2.20;1.50;;;22.80;23.90;;;;;;2263058;61;20368;-51
2023/03/14 08:31:58;0.00;0.00;0.62;0.00;0.00;0.62;2.00;1.13;;;22.80;23.90;;;;;;2264158;61;20355;-52
2023/03/14 08:34:44;0.00;0.00;0.62;0.00;0.00;0.62;2.27;1.53;;;22.80;23.90;;;;;;2263425;61;20379;-58
2023/03/14 08:37:30;0.00;0.00;0.62;0.00;0.00;0.62;1.80;1.10;;;22.80;23.90;;;;;;2264153;61;20928;-54
2023/03/14 08:40:17;0.00;0.00;0.62;0.00;0.00;0.62;2.93;1.90;;;22.80;23.90;;;;;;2264152;61;20444;-57
2023/03/14 08:43:01;0.00;0.00;0.62;0.00;0.00;0.62;2.60;1.83;;;22.80;23.90;;;;;;2263977;61;20395;-56
2023/03/14 08:45:46;0.00;0.00;0.62;0.00;0.00;0.62;2.00;1.70;;;22.80;23.90;;;;;;2264592;61;20844;-55
2023/03/14 08:48:31;0.00;0.00;0.62;0.00;0.00;0.62;2.50;1.73;;;22.80;24.40;;;;;;2264834;61;20912;-57
2023/03/14 08:51:17;0.00;0.00;0.62;0.00;0.00;0.62;2.40;1.93;;;22.80;23.90;;;;;;2263790;61;20402;-52
2023/03/14 08:54:02;0.00;0.00;0.62;0.00;0.00;0.62;2.40;1.93;;;22.80;23.90;;;;;;2264422;61;20419;-53
2023/03/14 08:56:47;0.00;0.00;0.62;0.00;0.00;0.62;3.07;2.30;;;22.80;23.90;;;;;;2264435;61;20430;-57
2023/03/14 08:59:32;0.00;0.00;0.62;0.00;0.00;0.62;3.20;2.40;;;22.80;23.90;;;;;;2264081;61;20478;-54
2023/03/14 09:02:16;0.00;0.00;0.62;0.00;0.00;0.62;3.20;2.53;;;22.80;23.90;;;;;;2264561;61;20423;-52
2023/03/14 09:05:01;0.00;0.00;0.62;0.00;0.00;0.62;2.70;2.43;;;22.80;23.90;;;;;;2263742;61;20538;-55
2023/03/14 09:07:47;0.00;0.00;0.62;0.00;0.00;0.62;3.10;2.13;;;22.80;24.00;;;;;;2264541;61;20671;-53
2023/03/14 09:10:31;0.00;0.00;0.62;0.00;0.00;0.62;3.63;2.70;;;22.80;23.90;;;;;;2264315;61;20371;-55
2023/03/14 09:13:16;0.00;0.00;0.62;0.00;0.00;0.62;3.00;2.20;;;22.80;23.90;;;;;;2263870;61;20410;-54
2023/03/14 09:16:01;0.00;0.00;0.62;0.00;0.00;0.62;4.67;3.90;;;22.80;23.90;;;;;;2264472;61;20383;-52
2023/03/14 09:18:45;0.00;0.00;0.62;0.00;0.00;0.62;5.40;3.80;;;22.80;23.90;;;;;;2261371;61;20856;-52
2023/03/14 09:21:30;0.00;0.00;0.62;0.00;0.00;0.62;3.87;3.40;;;22.80;24.00;;;;;;2263978;61;20383;-56
2023/03/14 09:24:16;0.00;0.00;0.62;0.00;0.00;0.62;5.50;4.30;;;22.80;24.00;;;;;;2264517;61;20907;-55
2023/03/14 09:27:00;0.00;0.00;0.62;0.00;0.00;0.62;4.83;3.70;;;22.80;24.00;;;;;;2263839;61;20375;-55
2023/03/14 09:29:45;0.00;0.00;0.62;0.00;0.00;0.62;5.73;4.40;;;22.80;24.00;;;;;;2263971;61;20802;-57
2023/03/14 09:32:31;0.00;0.00;0.62;0.00;0.00;0.62;6.37;5.00;;;22.80;24.00;;;;;;2264473;61;20387;-53
2023/03/14 09:35:16;0.00;0.00;0.62;0.00;0.00;0.62;6.50;5.10;;;22.90;24.00;;;;;;2263472;61;20384;-57
2023/03/14 09:38:01;0.00;0.00;0.62;0.00;0.00;0.62;7.30;5.63;;;22.80;24.00;;;;;;2264765;61;20402;-53
2023/03/14 09:40:47;0.00;0.00;0.62;0.00;0.00;0.62;8.47;5.40;;;22.80;24.00;;;;;;2264387;61;20365;-52
2023/03/14 09:43:34;0.00;0.00;0.62;0.00;0.00;0.62;7.60;6.37;;;22.80;24.00;;;;;;2263848;61;20417;-51
2023/03/14 09:46:20;0.00;0.00;0.62;0.00;0.00;0.62;6.40;5.73;;;22.80;24.00;;;;;;2264467;61;20407;-53
2023/03/14 09:49:14;0.00;0.00;0.62;0.00;0.00;0.62;6.83;4.87;;;22.80;24.00;;;;;;2263303;61;20364;-54
2023/03/14 09:52:04;0.00;0.00;0.62;0.00;0.00;0.62;6.50;5.10;;;22.80;24.10;;;;;;2264496;61;20951;-56
2023/03/14 09:54:52;0.00;0.00;0.62;0.00;0.00;0.62;7.43;5.80;;;22.80;24.00;;;;;;2264426;61;20384;-56
2023/03/14 09:57:39;0.00;0.00;0.62;0.00;0.00;0.62;7.00;5.90;;;22.80;24.10;;;;;;2263651;61;20493;-55
2023/03/14 10:00:28;0.00;0.00;0.62;0.00;0.00;0.62;6.67;5.33;;;22.80;24.10;;;;;;2264149;61;20372;-55
2023/03/14 10:03:28;0.00;0.00;0.62;0.00;0.00;0.62;6.13;5.17;;;22.80;24.10;;;;;;2264143;61;20383;-56
2023/03/14 10:06:15;0.00;0.00;0.62;0.00;0.00;0.62;6.87;5.90;;;22.90;24.20;;;;;;2264406;61;20368;-52
2023/03/14 10:09:00;0.00;0.00;0.62;0.00;0.00;0.62;6.87;5.80;;;22.90;24.20;;;;;;2263842;61;20418;-56
2023/03/14 10:11:45;0.00;0.00;0.62;0.00;0.00;0.62;6.50;5.47;;;22.90;24.20;;;;;;2263693;61;20379;-54
2023/03/14 10:14:35;0.00;0.00;0.62;0.00;0.00;0.62;7.70;6.10;;;22.90;24.20;;;;;;2264286;61;20387;-54
2023/03/14 10:17:21;0.00;0.00;0.62;0.00;0.00;0.62;6.20;5.27;;;22.90;24.20;;;;;;2264423;61;21019;-55
2023/03/14 10:20:25;0.00;0.00;0.62;0.00;0.00;0.62;5.30;4.80;;;22.90;24.20;;;;;;2263309;61;20364;-56
2023/03/14 10:23:26;0.00;0.00;0.62;0.00;0.00;0.62;6.70;6.00;;;22.90;24.20;;;;;;2264247;61;20427;-55
2023/03/14 10:26:15;0.00;0.00;0.62;0.00;0.00;0.62;6.87;5.47;;;22.90;24.20;;;;;;2263520;61;20367;-52
2023/03/14 10:29:03;0.00;0.00;0.62;0.00;0.00;0.62;6.90;5.40;;;22.90;24.20;;;;;;2263999;61;20388;-56
2023/03/14 10:31:53;0.00;0.00;0.62;0.00;0.00;0.62;5.70;5.00;;;22.90;24.20;;;;;;2264390;61;20411;-52
2023/03/14 10:34:39;0.00;0.00;0.62;0.00;0.00;0.62;5.73;5.03;;;23.00;24.30;;;;;;2263643;61;20388;-50
2023/03/14 10:37:27;0.00;0.00;0.62;0.00;0.00;0.62;5.77;5.17;;;23.00;24.30;;;;;;2264449;61;20395;-55
2023/03/14 10:40:13;0.00;0.00;0.62;0.00;0.00;0.62;6.37;4.90;;;23.00;24.30;;;;;;2263907;61;20775;-58
2023/03/14 10:43:00;0.00;0.00;0.62;0.00;0.00;0.62;5.53;4.60;;;23.00;24.30;;;;;;2264011;61;20438;-56
2023/03/14 10:45:51;0.00;0.00;0.62;0.00;0.00;0.62;5.47;4.90;;;23.00;24.20;;;;;;2264314;61;20392;-54
2023/03/14 10:48:41;0.00;0.00;0.62;0.00;0.00;0.62;6.67;5.00;;;23.00;24.20;;;;;;2263604;61;20876;-56
2023/03/14 10:51:29;0.00;0.00;0.62;0.00;0.00;0.62;6.00;4.77;;;23.00;24.20;;;;;;2264464;61;20390;-55
2023/03/14 10:54:20;0.00;0.00;0.62;0.00;0.00;0.62;5.07;4.50;;;23.00;24.20;;;;;;2264003;61;20407;-53
2023/03/14 10:57:08;0.00;0.00;0.62;0.00;0.00;0.62;7.07;4.80;;;23.00;24.20;;;;;;2263732;61;20471;-55
2023/03/14 10:59:56;0.00;0.00;0.62;0.00;0.00;0.62;5.13;4.40;;;23.00;24.20;;;;;;2263757;61;20403;-53
2023/03/14 11:02:55;0.00;0.00;0.62;0.00;0.00;0.62;5.63;4.73;;;23.00;24.20;;;;;;2263927;61;20519;-52
2023/03/14 11:05:49;0.00;0.00;0.62;0.00;0.00;0.62;5.10;4.53;;;23.00;24.20;;;;;;2264279;61;20450;-50